createdAt,value
2019-05-03T00:00:15.362Z,10.00
2019-05-03T00:03:08.487Z,10.00
2019-05-03T00:05:57.926Z,10.00
2019-05-03T00:08:27.210Z,10.00
2019-05-03T00:10:56.491Z,10.00
2019-05-03T00:13:25.861Z,10.00
2019-05-03T00:16:17.211Z,10.00
2019-05-03T00:18:46.643Z,10.00
2019-05-03T00:21:15.951Z,10.10
2019-05-03T00:23:45.266Z,10.10
2019-05-03T00:26:14.634Z,10.10
2019-05-03T00:28:43.964Z,10.10
2019-05-03T00:31:13.371Z,10.10
2019-05-03T00:33:44.884Z,10.10
2019-05-03T00:36:28.718Z,10.00
2019-05-03T00:39:03.267Z,10.00
2019-05-03T00:41:32.539Z,10.00
2019-05-03T00:44:02.225Z,9.90
2019-05-03T00:46:32.745Z,10.00
2019-05-03T00:49:03.798Z,10.00
2019-05-03T00:51:33.306Z,10.00
2019-05-03T00:54:02.654Z,10.00
2019-05-03T00:56:32.187Z,10.00
2019-05-03T00:59:02.225Z,9.90
2019-05-03T01:01:32.095Z,9.90
2019-05-03T01:04:01.880Z,9.90
2019-05-03T01:06:31.832Z,9.90
2019-05-03T01:09:02.657Z,9.90
2019-05-03T01:11:32.401Z,9.90
2019-05-03T01:14:02.658Z,9.90
2019-05-03T01:16:32.118Z,9.90
2019-05-03T01:19:02.586Z,9.90
2019-05-03T01:21:32.112Z,9.90
2019-05-03T01:24:01.735Z,9.90
2019-05-03T01:26:31.951Z,9.90
2019-05-03T01:29:02.733Z,9.90
2019-05-03T01:31:32.187Z,10.00
2019-05-03T01:34:02.353Z,10.00
2019-05-03T01:36:32.149Z,10.00
2019-05-03T01:39:02.123Z,10.00
2019-05-03T01:41:32.356Z,10.00
2019-05-03T01:44:01.970Z,9.90
2019-05-03T01:46:31.673Z,9.90
2019-05-03T01:49:17.961Z,9.90
2019-05-03T01:52:18.438Z,9.90
2019-05-03T01:54:47.786Z,9.90
2019-05-03T01:57:17.092Z,9.90
2019-05-03T01:59:46.492Z,9.90
2019-05-03T02:02:34.714Z,9.90
2019-05-03T02:05:42.915Z,9.90
2019-05-03T02:08:14.245Z,9.90
2019-05-03T02:10:43.733Z,9.90
2019-05-03T02:13:13.367Z,9.90
2019-05-03T02:15:42.629Z,10.00
2019-05-03T02:18:14.893Z,10.00
2019-05-03T02:20:43.490Z,10.00
2019-05-03T02:23:12.981Z,10.00
2019-05-03T02:25:45.935Z,10.10
2019-05-03T02:28:13.310Z,10.20
2019-05-03T02:30:44.051Z,10.20
2019-05-03T02:33:14.962Z,10.20
2019-05-03T02:35:44.286Z,10.20
2019-05-03T02:38:14.811Z,10.10
2019-05-03T02:40:44.108Z,10.10
2019-05-03T02:43:26.094Z,10.10
2019-05-03T02:46:16.800Z,10.10
2019-05-03T02:48:55.724Z,10.10
2019-05-03T02:51:25.987Z,10.10
2019-05-03T02:53:57.136Z,10.00
2019-05-03T02:56:26.756Z,9.90
2019-05-03T02:58:56.253Z,9.90
2019-05-03T03:01:26.567Z,9.80
2019-05-03T03:03:57.124Z,9.80
2019-05-03T03:06:27.992Z,9.80
2019-05-03T03:08:58.939Z,9.80
2019-05-03T03:11:30.751Z,9.90
2019-05-03T03:14:01.739Z,9.80
2019-05-03T03:16:35.892Z,9.80
2019-05-03T03:19:06.748Z,9.70
2019-05-03T03:21:40.691Z,9.70
2019-05-03T03:24:16.402Z,9.70
2019-05-03T03:26:47.332Z,9.70
2019-05-03T03:29:18.221Z,9.60
2019-05-03T03:32:21.915Z,9.70
2019-05-03T03:35:20.750Z,9.70
2019-05-03T03:37:48.009Z,9.70
2019-05-03T03:40:18.968Z,9.70
2019-05-03T03:42:50.823Z,9.60
2019-05-03T03:45:20.109Z,9.60
2019-05-03T03:47:56.357Z,9.50
2019-05-03T03:50:26.208Z,9.50
2019-05-03T03:52:58.266Z,9.50
2019-05-03T03:55:31.259Z,9.50
2019-05-03T03:58:00.570Z,9.50
2019-05-03T04:00:29.869Z,9.50
2019-05-03T04:02:59.501Z,9.50
2019-05-03T04:05:28.877Z,9.50
2019-05-03T04:07:58.307Z,9.50
2019-05-03T04:10:28.059Z,9.50
2019-05-03T04:12:58.192Z,9.50
2019-05-03T04:15:49.456Z,9.50
2019-05-03T04:18:27.526Z,9.50
2019-05-03T04:20:57.760Z,9.50
2019-05-03T04:23:30.901Z,9.50
2019-05-03T04:26:00.267Z,9.50
2019-05-03T04:28:29.996Z,9.60
2019-05-03T04:30:59.315Z,9.50
2019-05-03T04:33:28.679Z,9.50
2019-05-03T04:35:58.069Z,9.50
2019-05-03T04:38:27.414Z,9.50
2019-05-03T04:40:56.767Z,9.50
2019-05-03T04:43:26.638Z,9.50
2019-05-03T04:46:12.959Z,9.50
2019-05-03T04:48:44.827Z,9.50
2019-05-03T04:51:16.566Z,9.50
2019-05-03T04:53:51.949Z,9.60
2019-05-03T04:56:21.276Z,9.50
2019-05-03T04:58:50.653Z,9.50
2019-05-03T05:01:19.959Z,9.50
2019-05-03T05:03:49.413Z,9.60
2019-05-03T05:06:18.670Z,9.50
2019-05-03T05:08:57.088Z,9.60
2019-05-03T05:11:26.672Z,9.60
2019-05-03T05:13:56.163Z,9.50
2019-05-03T05:16:25.517Z,9.40
2019-05-03T05:18:58.889Z,9.40
2019-05-03T05:21:32.520Z,9.40
2019-05-03T05:24:05.545Z,9.30
2019-05-03T05:26:54.910Z,9.30
2019-05-03T05:29:26.160Z,9.10
2019-05-03T05:31:55.418Z,9.10
2019-05-03T05:34:24.861Z,9.00
2019-05-03T05:36:55.401Z,8.90
2019-05-03T05:39:24.759Z,8.90
2019-05-03T05:41:55.429Z,8.90
2019-05-03T05:44:24.916Z,8.90
2019-05-03T05:47:04.694Z,8.90
2019-05-03T05:50:08.368Z,8.90
2019-05-03T05:52:37.653Z,8.90
2019-05-03T05:55:26.784Z,8.80
2019-05-03T05:58:15.571Z,8.70
2019-05-03T06:00:50.528Z,8.60
2019-05-03T06:03:19.824Z,8.50
2019-05-03T06:05:49.244Z,8.40
2019-05-03T06:08:37.578Z,8.30
2019-05-03T06:11:21.080Z,8.20
2019-05-03T06:13:54.673Z,8.10
2019-05-03T06:16:32.374Z,8.10
2019-05-03T06:19:25.224Z,8.00
2019-05-03T06:22:11.750Z,8.00
2019-05-03T06:24:46.713Z,8.10
2019-05-03T06:27:24.466Z,8.00
2019-05-03T06:29:55.555Z,8.10
2019-05-03T06:32:36.312Z,8.00
2019-05-03T06:35:06.025Z,8.00
2019-05-03T06:37:40.817Z,7.90
2019-05-03T06:40:10.406Z,7.90
2019-05-03T06:42:51.550Z,7.90
2019-05-03T06:45:11.814Z,8.00
2019-05-03T06:47:45.884Z,7.90
2019-05-03T06:50:14.527Z,7.90
2019-05-03T06:52:44.588Z,7.90
2019-05-03T06:55:14.663Z,7.90
2019-05-03T06:57:49.625Z,7.90
2019-05-03T07:00:34.931Z,8.00
2019-05-03T07:03:21.139Z,8.00
2019-05-03T07:06:09.326Z,8.00
2019-05-03T07:08:48.518Z,8.00
2019-05-03T07:11:17.851Z,8.00
2019-05-03T07:13:47.140Z,8.00
2019-05-03T07:16:16.419Z,8.00
2019-05-03T07:18:45.810Z,8.00
2019-05-03T07:21:15.359Z,8.00
2019-05-03T07:23:45.143Z,8.00
2019-05-03T07:26:15.085Z,8.00
2019-05-03T07:28:49.342Z,8.00
2019-05-03T07:31:15.646Z,8.10
2019-05-03T07:33:44.963Z,8.10
2019-05-03T07:36:15.283Z,8.10
2019-05-03T07:38:45.347Z,8.20
2019-05-03T07:41:15.015Z,8.20
2019-05-03T07:43:45.058Z,8.20
2019-05-03T07:46:14.902Z,8.30
2019-05-03T07:48:45.674Z,8.30
2019-05-03T07:51:15.271Z,8.40
2019-05-03T07:53:45.148Z,8.40
2019-05-03T07:56:15.952Z,8.40
2019-05-03T07:59:02.617Z,8.40
2019-05-03T08:01:31.609Z,8.50
2019-05-03T08:04:00.878Z,8.60
2019-05-03T08:06:30.238Z,8.50
2019-05-03T08:08:59.578Z,8.60
2019-05-03T08:11:29.023Z,8.70
2019-05-03T08:13:58.324Z,8.70
2019-05-03T08:16:27.631Z,8.70
2019-05-03T08:18:56.925Z,8.70
2019-05-03T08:21:26.226Z,8.80
2019-05-03T08:23:55.844Z,9.00
2019-05-03T08:26:25.903Z,9.00
2019-05-03T08:28:55.548Z,9.20
2019-05-03T08:31:59.289Z,9.30
2019-05-03T08:34:55.474Z,9.50
2019-05-03T08:37:28.076Z,9.70
2019-05-03T08:39:57.591Z,9.80
2019-05-03T08:42:26.927Z,9.70
2019-05-03T08:44:56.282Z,9.90
2019-05-03T08:47:25.665Z,9.90
2019-05-03T08:49:55.454Z,10.00
2019-05-03T08:52:24.982Z,10.00
2019-05-03T08:55:15.647Z,10.10
2019-05-03T08:57:44.903Z,10.20
2019-05-03T09:00:16.672Z,10.20
2019-05-03T09:02:46.011Z,10.20
2019-05-03T09:05:18.152Z,10.10
2019-05-03T09:07:46.560Z,10.20
2019-05-03T09:10:35.152Z,10.30
2019-05-03T09:13:15.315Z,10.30
2019-05-03T09:15:45.436Z,10.20
2019-05-03T09:18:17.363Z,10.30
2019-05-03T09:20:45.760Z,10.20
2019-05-03T09:23:15.075Z,10.10
2019-05-03T09:25:45.827Z,10.20
2019-05-03T09:28:15.443Z,10.40
2019-05-03T09:30:44.881Z,10.60
2019-05-03T09:33:15.381Z,10.90
2019-05-03T09:35:45.657Z,11.20
2019-05-03T09:38:15.260Z,11.10
2019-05-03T09:40:45.378Z,11.10
2019-05-03T09:43:15.292Z,11.20
2019-05-03T09:45:45.731Z,11.30
2019-05-03T09:48:15.331Z,11.30
2019-05-03T09:50:45.167Z,11.30
2019-05-03T09:53:16.780Z,11.20
2019-05-03T09:55:46.091Z,11.30
2019-05-03T09:58:15.507Z,11.40
2019-05-03T10:00:45.333Z,11.30
2019-05-03T10:03:14.714Z,11.30
2019-05-03T10:05:45.816Z,11.30
2019-05-03T10:08:15.782Z,11.30
2019-05-03T10:11:05.274Z,11.30
2019-05-03T10:13:35.511Z,11.30
2019-05-03T10:16:06.170Z,11.20
2019-05-03T10:18:35.854Z,11.20
2019-05-03T10:21:05.648Z,11.10
2019-05-03T10:23:41.398Z,11.20
2019-05-03T10:26:10.946Z,11.30
2019-05-03T10:28:40.375Z,11.20
2019-05-03T10:31:09.699Z,11.40
2019-05-03T10:33:49.582Z,11.50
2019-05-03T10:36:18.961Z,11.80
2019-05-03T10:38:48.307Z,11.90
2019-05-03T10:41:17.664Z,11.80
2019-05-03T10:43:47.095Z,11.90
2019-05-03T10:46:16.476Z,12.00
2019-05-03T10:48:45.948Z,12.10
2019-05-03T10:51:15.840Z,12.00
2019-05-03T10:53:48.293Z,12.20
2019-05-03T10:56:55.900Z,12.30
2019-05-03T10:59:25.407Z,12.50
2019-05-03T11:02:13.644Z,12.60
2019-05-03T11:04:44.248Z,12.60
2019-05-03T11:07:14.894Z,12.50
2019-05-03T11:09:49.709Z,12.30
2019-05-03T11:12:15.863Z,12.10
2019-05-03T11:14:45.607Z,11.90
2019-05-03T11:17:15.066Z,12.00
2019-05-03T11:19:45.400Z,12.20
2019-05-03T11:22:14.904Z,12.50
2019-05-03T11:24:45.362Z,12.60
2019-05-03T11:27:19.707Z,12.70
2019-05-03T11:29:49.061Z,12.80
2019-05-03T11:32:44.749Z,12.80
2019-05-03T11:35:32.542Z,12.80
2019-05-03T11:38:15.676Z,12.70
2019-05-03T11:40:45.516Z,12.70
2019-05-03T11:43:15.304Z,12.70
2019-05-03T11:45:44.906Z,12.80
2019-05-03T11:48:15.970Z,12.80
2019-05-03T11:50:45.460Z,12.70
2019-05-03T11:53:14.799Z,12.80
2019-05-03T11:55:46.379Z,12.90
2019-05-03T11:58:19.909Z,13.20
2019-05-03T12:01:10.379Z,13.50
2019-05-03T12:03:35.385Z,13.80
2019-05-03T12:06:04.991Z,14.00
2019-05-03T12:08:34.658Z,14.20
2019-05-03T12:11:05.806Z,14.00
2019-05-03T12:13:35.691Z,13.90
2019-05-03T12:16:16.039Z,13.60
2019-05-03T12:18:48.917Z,13.40
2019-05-03T12:21:09.609Z,13.30
2019-05-03T12:23:39.729Z,13.30
2019-05-03T12:26:40.848Z,13.40
2019-05-03T12:28:59.224Z,13.40
2019-05-03T12:31:36.909Z,13.20
2019-05-03T12:33:59.499Z,13.20
2019-05-03T12:36:28.754Z,13.20
2019-05-03T12:38:58.017Z,13.10
2019-05-03T12:41:27.280Z,13.10
2019-05-03T12:43:56.526Z,13.00
2019-05-03T12:46:26.241Z,13.10
2019-05-03T12:48:55.641Z,13.30
2019-05-03T12:51:25.251Z,13.40
2019-05-03T12:53:55.227Z,13.40
2019-05-03T12:56:32.345Z,13.50
2019-05-03T12:59:09.833Z,13.50
2019-05-03T13:01:58.009Z,13.50
2019-05-03T13:04:30.498Z,13.70
2019-05-03T13:07:24.817Z,13.90
2019-05-03T13:09:54.533Z,14.10
2019-05-03T13:12:25.540Z,14.20
2019-05-03T13:14:54.806Z,14.20
2019-05-03T13:17:36.923Z,14.20
2019-05-03T13:20:07.431Z,14.00
2019-05-03T13:22:36.883Z,13.80
2019-05-03T13:25:07.421Z,13.60
2019-05-03T13:27:36.602Z,13.60
2019-05-03T13:30:08.218Z,13.70
2019-05-03T13:32:37.497Z,13.70
2019-05-03T13:35:06.898Z,13.60
2019-05-03T13:37:36.188Z,13.70
2019-05-03T13:40:05.882Z,13.60
2019-05-03T13:43:01.739Z,13.50
2019-05-03T13:45:25.350Z,13.50
2019-05-03T13:47:55.238Z,13.50
2019-05-03T13:50:24.842Z,13.50
2019-05-03T13:52:55.937Z,13.50
2019-05-03T13:55:25.543Z,13.60
2019-05-03T13:58:14.753Z,13.60
2019-05-03T14:00:45.314Z,13.40
2019-05-03T14:03:15.347Z,13.40
2019-05-03T14:05:44.875Z,13.40
2019-05-03T14:08:15.635Z,13.50
2019-05-03T14:10:45.692Z,13.50
2019-05-03T14:13:15.179Z,13.40
2019-05-03T14:15:45.339Z,13.30
2019-05-03T14:18:15.442Z,13.30
2019-05-03T14:21:07.916Z,13.30
2019-05-03T14:23:55.397Z,13.30
2019-05-03T14:26:24.846Z,13.50
2019-05-03T14:28:54.835Z,13.70
2019-05-03T14:31:25.168Z,13.70
2019-05-03T14:33:55.903Z,13.70
2019-05-03T14:36:25.443Z,13.80
2019-05-03T14:38:55.048Z,13.90
2019-05-03T14:41:25.441Z,13.80
2019-05-03T14:43:55.668Z,13.60
2019-05-03T14:46:32.552Z,13.50
2019-05-03T14:48:57.429Z,13.50
2019-05-03T14:51:46.012Z,13.70
2019-05-03T14:54:15.664Z,13.80
2019-05-03T14:56:54.349Z,13.70
2019-05-03T14:59:41.731Z,13.60
2019-05-03T15:02:42.601Z,13.60
2019-05-03T15:05:01.144Z,13.50
2019-05-03T15:07:30.501Z,13.30
2019-05-03T15:09:59.840Z,13.20
2019-05-03T15:12:29.260Z,13.20
2019-05-03T15:14:58.628Z,13.30
2019-05-03T15:17:28.045Z,13.30
2019-05-03T15:19:57.419Z,13.40
2019-05-03T15:22:26.770Z,13.60
2019-05-03T15:24:56.247Z,13.70
2019-05-03T15:27:25.722Z,13.70
2019-05-03T15:29:55.634Z,13.60
2019-05-03T15:32:25.207Z,13.50
2019-05-03T15:34:55.349Z,13.40
2019-05-03T15:37:25.497Z,13.10
2019-05-03T15:39:55.334Z,12.90
2019-05-03T15:42:25.793Z,13.00
2019-05-03T15:45:17.127Z,13.00
2019-05-03T15:48:04.481Z,12.90
2019-05-03T15:50:35.542Z,12.80
2019-05-03T15:53:05.157Z,12.90
2019-05-03T15:55:34.588Z,12.70
2019-05-03T15:58:04.730Z,12.60
2019-05-03T16:00:34.363Z,12.60
2019-05-03T16:03:08.881Z,12.50
2019-05-03T16:05:35.505Z,12.60
2019-05-03T16:08:05.009Z,12.50
2019-05-03T16:10:36.322Z,12.60
2019-05-03T16:13:05.489Z,12.70
2019-05-03T16:15:35.257Z,12.80
2019-05-03T16:18:05.267Z,12.60
2019-05-03T16:20:39.253Z,12.60
2019-05-03T16:23:06.707Z,12.50
2019-05-03T16:25:36.608Z,12.40
2019-05-03T16:28:20.587Z,12.40
2019-05-03T16:30:56.787Z,12.30
2019-05-03T16:33:28.155Z,12.40
2019-05-03T16:35:57.213Z,12.40
2019-05-03T16:38:26.592Z,12.40
2019-05-03T16:40:56.599Z,12.40
2019-05-03T16:43:26.366Z,12.30
2019-05-03T16:45:55.766Z,12.40
2019-05-03T16:48:25.108Z,12.60
2019-05-03T16:50:54.544Z,12.80
2019-05-03T16:53:25.525Z,12.90
2019-05-03T16:55:55.263Z,12.90
2019-05-03T16:58:24.861Z,12.90
2019-05-03T17:00:55.437Z,13.00
2019-05-03T17:03:38.447Z,13.10
2019-05-03T17:06:26.412Z,13.10
2019-05-03T17:09:14.537Z,13.10
2019-05-03T17:11:45.874Z,13.10
2019-05-03T17:14:15.536Z,13.20
2019-05-03T17:16:45.117Z,13.20
2019-05-03T17:19:14.760Z,13.20
2019-05-03T17:21:45.637Z,13.20
2019-05-03T17:24:15.498Z,13.20
2019-05-03T17:26:45.095Z,13.30
2019-05-03T17:29:14.501Z,13.40
2019-05-03T17:31:44.495Z,13.50
2019-05-03T17:34:14.495Z,13.30
2019-05-03T17:36:45.016Z,13.20
2019-05-03T17:39:16.893Z,13.20
2019-05-03T17:42:11.528Z,13.10
2019-05-03T17:44:45.037Z,13.10
2019-05-03T17:47:14.933Z,13.10
2019-05-03T17:49:45.170Z,13.00
2019-05-03T17:52:34.383Z,13.00
2019-05-03T17:55:24.951Z,12.90
2019-05-03T17:58:09.340Z,12.70
2019-05-03T18:01:01.207Z,12.60
2019-05-03T18:03:33.542Z,12.50
2019-05-03T18:06:10.104Z,12.40
2019-05-03T18:09:01.482Z,12.40
2019-05-03T18:11:35.692Z,12.30
2019-05-03T18:14:05.506Z,12.30
2019-05-03T18:16:35.097Z,12.30
2019-05-03T18:19:05.229Z,12.40
2019-05-03T18:21:35.470Z,12.40
2019-05-03T18:24:05.013Z,12.40
2019-05-03T18:26:35.522Z,12.40
2019-05-03T18:29:05.764Z,12.30
2019-05-03T18:31:35.611Z,12.20
2019-05-03T18:34:06.360Z,12.20
2019-05-03T18:36:36.132Z,12.10
2019-05-03T18:39:07.973Z,12.10
2019-05-03T18:41:37.527Z,12.00
2019-05-03T18:44:41.164Z,11.80
2019-05-03T18:47:16.250Z,11.90
2019-05-03T18:49:47.209Z,11.90
2019-05-03T18:52:16.547Z,11.80
2019-05-03T18:54:45.898Z,11.80
2019-05-03T18:57:15.673Z,11.80
2019-05-03T18:59:45.058Z,11.90
2019-05-03T19:02:14.957Z,11.90
2019-05-03T19:04:48.330Z,11.90
2019-05-03T19:07:29.409Z,11.90
2019-05-03T19:10:17.694Z,11.80
2019-05-03T19:12:55.196Z,11.70
2019-05-03T19:15:25.110Z,11.60
2019-05-03T19:18:01.783Z,11.60
2019-05-03T19:20:31.158Z,11.60
2019-05-03T19:23:00.510Z,11.50
2019-05-03T19:25:30.047Z,11.50
2019-05-03T19:27:59.560Z,11.50
2019-05-03T19:30:29.100Z,11.50
2019-05-03T19:32:58.447Z,11.50
2019-05-03T19:35:27.898Z,11.50
2019-05-03T19:37:57.415Z,11.40
2019-05-03T19:40:27.024Z,11.40
2019-05-03T19:42:56.429Z,11.40
2019-05-03T19:45:25.912Z,11.30
2019-05-03T19:47:55.385Z,11.30
2019-05-03T19:50:27.139Z,11.30
2019-05-03T19:53:01.177Z,11.30
2019-05-03T19:55:30.757Z,11.30
2019-05-03T19:58:00.227Z,11.30
2019-05-03T20:00:38.586Z,11.30
2019-05-03T20:03:15.332Z,11.20
2019-05-03T20:06:14.455Z,11.20
2019-05-03T20:08:47.868Z,11.10
2019-05-03T20:11:17.940Z,11.10
2019-05-03T20:13:47.356Z,11.10
2019-05-03T20:16:17.660Z,11.10
2019-05-03T20:18:47.608Z,11.00
2019-05-03T20:21:17.302Z,10.90
2019-05-03T20:23:47.287Z,10.80
2019-05-03T20:26:20.156Z,10.60
2019-05-03T20:28:49.838Z,10.50
2019-05-03T20:31:19.472Z,10.40
2019-05-03T20:33:48.993Z,10.40
2019-05-03T20:36:18.797Z,10.40
2019-05-03T20:38:48.887Z,10.40
2019-05-03T20:41:18.872Z,10.40
2019-05-03T20:44:01.192Z,10.50
2019-05-03T20:46:38.336Z,10.50
2019-05-03T20:49:09.579Z,10.40
2019-05-03T20:51:42.122Z,10.50
2019-05-03T20:54:11.781Z,10.50
2019-05-03T20:56:41.350Z,10.50
2019-05-03T20:59:11.299Z,10.50
2019-05-03T21:01:40.924Z,10.50
2019-05-03T21:04:10.646Z,10.60
2019-05-03T21:06:40.249Z,10.60
2019-05-03T21:09:09.995Z,10.60
2019-05-03T21:11:39.454Z,10.50
2019-05-03T21:14:08.874Z,10.30
2019-05-03T21:16:45.329Z,10.30
2019-05-03T21:19:32.510Z,10.20
2019-05-03T21:22:11.125Z,10.20
2019-05-03T21:24:58.259Z,10.10
2019-05-03T21:27:27.581Z,10.00
2019-05-03T21:29:56.968Z,9.90
2019-05-03T21:32:26.690Z,9.90
2019-05-03T21:34:56.119Z,9.90
2019-05-03T21:37:28.479Z,9.90
2019-05-03T21:39:57.801Z,9.90
2019-05-03T21:42:27.124Z,9.90
2019-05-03T21:44:56.433Z,9.80
2019-05-03T21:47:41.098Z,9.90
2019-05-03T21:50:14.645Z,9.90
2019-05-03T21:52:45.699Z,9.80
2019-05-03T21:55:15.215Z,9.80
2019-05-03T21:57:48.518Z,9.80
2019-05-03T22:00:20.149Z,9.90
2019-05-03T22:02:49.594Z,9.90
2019-05-03T22:05:19.042Z,9.80
2019-05-03T22:07:48.395Z,9.80
2019-05-03T22:10:17.871Z,9.70
2019-05-03T22:12:47.273Z,9.60
2019-05-03T22:15:28.083Z,9.70
2019-05-03T22:18:04.732Z,9.60
2019-05-03T22:20:39.949Z,9.50
2019-05-03T22:23:16.287Z,9.50
2019-05-03T22:25:45.673Z,9.40
2019-05-03T22:28:15.553Z,9.40
2019-05-03T22:30:45.380Z,9.30
2019-05-03T22:33:15.024Z,9.30
2019-05-03T22:35:44.577Z,9.30
2019-05-03T22:38:14.075Z,9.30
2019-05-03T22:40:44.264Z,9.20
2019-05-03T22:43:17.199Z,9.10
2019-05-03T22:45:46.523Z,9.10
2019-05-03T22:48:15.903Z,9.10
2019-05-03T22:50:45.288Z,9.10
2019-05-03T22:53:15.341Z,9.10
2019-05-03T22:55:45.121Z,9.10
2019-05-03T22:58:15.335Z,9.10
2019-05-03T23:00:47.843Z,9.10
2019-05-03T23:03:17.190Z,9.10
2019-05-03T23:05:46.628Z,9.10
2019-05-03T23:08:15.956Z,9.10
2019-05-03T23:10:45.275Z,9.10
2019-05-03T23:13:15.407Z,9.20
2019-05-03T23:15:44.887Z,9.10
2019-05-03T23:18:14.224Z,9.10
2019-05-03T23:20:50.296Z,9.10
2019-05-03T23:23:37.197Z,9.10
2019-05-03T23:26:06.546Z,9.10
2019-05-03T23:28:36.072Z,9.20
2019-05-03T23:31:05.454Z,9.20
2019-05-03T23:33:34.947Z,9.20
2019-05-03T23:36:04.675Z,9.10
2019-05-03T23:38:34.179Z,9.00
2019-05-03T23:41:04.880Z,9.00
2019-05-03T23:43:35.822Z,9.00
2019-05-03T23:46:05.224Z,9.00
2019-05-03T23:48:35.110Z,9.00
2019-05-03T23:51:04.680Z,9.10
2019-05-03T23:53:34.177Z,9.10
2019-05-03T23:56:10.616Z,9.10
2019-05-03T23:58:39.903Z,9.10
